Time;durP1;ratioP1;P1;durP2;ratioP2;P2;SDS_P1;SDS_P2;PMS_P1;PMS_P2;Temp;Humidity;BMP_temperature;BMP_pressure;BME280_temperature;BME280_humidity;BME280_pressure;Samples;Min_cycle;Max_cycle;Signal;HPM_P1;HPM_P2
2021/07/01 00:01:54;;;;;;;1.23;0.73;;;;;;;;;;10406235;28;20228;-73
2021/07/01 00:06:57;;;;;;;1.13;0.60;;;;;;;;;;10413115;28;20269;-73
2021/07/01 00:12:00;;;;;;;0.80;0.50;;;;;;;;;;10407949;28;20245;-73
2021/07/01 00:17:04;;;;;;;0.63;0.37;;;;;;;;;;10414634;28;20377;-73
2021/07/01 00:22:07;;;;;;;1.10;0.63;;;;;;;;;;10408040;28;20249;-73
2021/07/01 00:27:09;;;;;;;0.20;0.20;;;;;;;;;;10411014;28;20248;-72
2021/07/01 00:32:13;;;;;;;1.10;0.70;;;;;;;;;;10392138;28;20256;-72
2021/07/01 00:37:16;;;;;;;0.80;0.57;;;;;;;;;;10409632;28;20217;-73
2021/07/01 00:42:19;;;;;;;0.63;0.47;;;;;;;;;;10399846;28;20578;-72
2021/07/01 00:47:23;;;;;;;0.70;0.70;;;;;;;;;;10406579;28;20538;-73
2021/07/01 00:52:26;;;;;;;0.70;0.60;;;;;;;;;;10389262;28;20230;-72
2021/07/01 00:57:28;;;;;;;2.10;0.90;;;;;;;;;;10408002;28;20198;-72
2021/07/01 01:02:33;;;;;;;1.23;0.40;;;;;;;;;;10399424;28;20229;-73
2021/07/01 01:07:36;;;;;;;2.87;0.90;;;;;;;;;;10407807;28;20205;-72
2021/07/01 01:12:39;;;;;;;2.00;0.80;;;;;;;;;;10398769;28;20222;-72
2021/07/01 01:17:44;;;;;;;2.87;1.00;;;;;;;;;;10402125;28;20244;-72
2021/07/01 01:22:48;;;;;;;1.93;1.00;;;;;;;;;;10403236;28;20284;-71
2021/07/01 01:27:52;;;;;;;2.80;1.00;;;;;;;;;;10417211;28;20316;-72
2021/07/01 01:32:54;;;;;;;2.50;0.83;;;;;;;;;;10402836;28;20229;-73
2021/07/01 01:37:59;;;;;;;1.13;0.80;;;;;;;;;;10404472;28;20239;-72
2021/07/01 01:43:01;;;;;;;2.03;1.00;;;;;;;;;;10405009;28;20703;-72
2021/07/01 01:48:04;;;;;;;1.80;0.90;;;;;;;;;;10408839;28;20201;-72
2021/07/01 01:53:08;;;;;;;3.70;1.30;;;;;;;;;;10402870;28;20304;-72
2021/07/01 01:58:11;;;;;;;1.73;0.90;;;;;;;;;;10402424;28;20186;-71
2021/07/01 02:03:14;;;;;;;2.00;0.90;;;;;;;;;;10401635;28;20225;-72
2021/07/01 02:08:18;;;;;;;1.03;0.80;;;;;;;;;;10405432;28;20197;-73
2021/07/01 02:13:21;;;;;;;1.93;1.00;;;;;;;;;;10409919;28;20245;-72
2021/07/01 02:18:23;;;;;;;0.67;0.60;;;;;;;;;;10409211;28;20287;-72
2021/07/01 02:23:27;;;;;;;0.60;0.60;;;;;;;;;;10408089;28;20708;-72
2021/07/01 02:28:30;;;;;;;1.57;0.90;;;;;;;;;;10413037;28;20743;-72
2021/07/01 02:33:33;;;;;;;1.33;0.90;;;;;;;;;;10415115;28;20252;-72
2021/07/01 02:38:36;;;;;;;0.60;0.47;;;;;;;;;;10410951;28;20280;-71
2021/07/01 02:43:39;;;;;;;2.47;0.87;;;;;;;;;;10410334;28;20256;-72
2021/07/01 02:48:41;;;;;;;2.67;0.83;;;;;;;;;;10402975;28;20291;-72
2021/07/01 02:53:45;;;;;;;1.33;0.83;;;;;;;;;;10414509;28;20275;-72
2021/07/01 02:58:48;;;;;;;1.03;0.77;;;;;;;;;;10414468;28;20333;-73
2021/07/01 03:03:51;;;;;;;2.43;1.13;;;;;;;;;;10424972;28;20271;-71
2021/07/01 03:08:57;;;;;;;2.37;0.97;;;;;;;;;;10414360;28;20271;-72
2021/07/01 03:14:00;;;;;;;2.20;1.20;;;;;;;;;;10412483;28;20201;-72
2021/07/01 03:19:03;;;;;;;1.50;1.00;;;;;;;;;;10414398;28;20284;-72
2021/07/01 03:24:07;;;;;;;1.13;0.97;;;;;;;;;;10407636;28;20222;-73
2021/07/01 03:29:10;;;;;;;3.00;1.20;;;;;;;;;;10410810;28;20252;-72
2021/07/01 03:34:13;;;;;;;2.30;1.20;;;;;;;;;;10409119;28;20601;-73
2021/07/01 03:39:17;;;;;;;2.07;1.10;;;;;;;;;;10407989;28;20225;-71
2021/07/01 03:44:20;;;;;;;3.70;1.20;;;;;;;;;;10402436;28;20568;-73
2021/07/01 03:49:22;;;;;;;2.67;1.33;;;;;;;;;;10413389;28;20659;-72
2021/07/01 03:54:26;;;;;;;2.73;1.43;;;;;;;;;;10406675;28;20209;-72
2021/07/01 03:59:29;;;;;;;2.27;1.30;;;;;;;;;;10410593;28;20292;-72
2021/07/01 04:04:32;;;;;;;2.03;1.20;;;;;;;;;;10411419;28;20217;-73
2021/07/01 04:09:36;;;;;;;0.57;0.43;;;;;;;;;;10410154;28;20304;-70
2021/07/01 04:14:38;;;;;;;2.80;1.40;;;;;;;;;;10409839;28;20221;-72
2021/07/01 04:20:01;;;;;;;2.83;1.13;;;;;;;;;;10407002;28;20303;-70
2021/07/01 04:25:06;;;;;;;2.53;1.50;;;;;;;;;;10408311;28;20238;-70
2021/07/01 04:30:08;;;;;;;2.50;1.37;;;;;;;;;;10402846;28;20665;-70
2021/07/01 04:35:11;;;;;;;2.30;1.20;;;;;;;;;;10405477;28;20212;-71
2021/07/01 04:40:15;;;;;;;2.60;1.30;;;;;;;;;;10408234;28;20296;-71
2021/07/01 04:45:18;;;;;;;4.07;1.70;;;;;;;;;;10401466;28;20198;-70
2021/07/01 04:50:21;;;;;;;4.13;2.00;;;;;;;;;;10397562;28;20300;-71
2021/07/01 04:55:25;;;;;;;3.67;1.77;;;;;;;;;;10406668;28;20194;-70
2021/07/01 05:00:27;;;;;;;3.50;1.60;;;;;;;;;;10401334;28;20681;-71
2021/07/01 05:05:30;;;;;;;5.53;2.20;;;;;;;;;;10404042;28;20728;-70
2021/07/01 05:10:34;;;;;;;3.17;1.80;;;;;;;;;;10409100;28;20218;-70
2021/07/01 05:15:40;;;;;;;6.17;1.93;;;;;;;;;;10390035;28;20205;-71
2021/07/01 05:20:43;;;;;;;5.20;2.10;;;;;;;;;;10403964;28;20609;-72
2021/07/01 05:25:47;;;;;;;3.70;1.90;;;;;;;;;;10396026;28;20649;-71
2021/07/01 05:30:50;;;;;;;3.13;1.70;;;;;;;;;;10403565;28;20214;-72
2021/07/01 05:35:52;;;;;;;3.20;1.73;;;;;;;;;;10409406;28;20573;-71
2021/07/01 05:40:56;;;;;;;5.03;2.77;;;;;;;;;;10410805;28;20595;-71
2021/07/01 05:46:00;;;;;;;1.70;0.93;;;;;;;;;;10397925;28;20625;-71
2021/07/01 05:51:04;;;;;;;4.67;2.10;;;;;;;;;;10401268;28;20536;-71
2021/07/01 05:56:08;;;;;;;4.23;2.00;;;;;;;;;;10407106;28;20496;-72
2021/07/01 06:01:11;;;;;;;3.73;2.00;;;;;;;;;;10407128;28;20240;-71
2021/07/01 06:06:14;;;;;;;3.57;1.87;;;;;;;;;;10399639;28;20299;-71
2021/07/01 06:11:19;;;;;;;2.77;1.63;;;;;;;;;;10398428;28;20280;-72
2021/07/01 06:16:23;;;;;;;7.70;2.00;;;;;;;;;;10364373;28;1069254;-71
2021/07/01 06:21:26;;;;;;;4.27;1.90;;;;;;;;;;10400383;28;20225;-71
2021/07/01 06:26:32;;;;;;;3.90;1.97;;;;;;;;;;10396555;28;20272;-70
2021/07/01 06:31:35;;;;;;;4.17;1.80;;;;;;;;;;10396728;28;20725;-70
2021/07/01 06:36:41;;;;;;;4.40;1.83;;;;;;;;;;10406357;28;20255;-71
2021/07/01 06:41:46;;;;;;;3.33;1.53;;;;;;;;;;10393342;28;20218;-71
2021/07/01 06:46:50;;;;;;;3.87;2.00;;;;;;;;;;10392637;28;20268;-69
2021/07/01 06:51:52;;;;;;;3.97;2.30;;;;;;;;;;10403567;28;20242;-71
2021/07/01 06:56:58;;;;;;;4.30;2.10;;;;;;;;;;10392637;28;20244;-70
2021/07/01 07:02:00;;;;;;;4.43;2.07;;;;;;;;;;10388393;28;20218;-70
2021/07/01 07:07:03;;;;;;;3.97;1.80;;;;;;;;;;10399877;28;20209;-70
2021/07/01 07:12:08;;;;;;;1.93;0.90;;;;;;;;;;10391986;28;20301;-71
2021/07/01 07:17:11;;;;;;;3.93;1.97;;;;;;;;;;10399008;28;20201;-69
2021/07/01 07:22:15;;;;;;;3.20;1.63;;;;;;;;;;10400236;28;20339;-71
2021/07/01 07:27:20;;;;;;;3.20;1.33;;;;;;;;;;10394854;28;20614;-70
2021/07/01 07:32:24;;;;;;;3.50;1.53;;;;;;;;;;10413967;28;20224;-70
2021/07/01 07:37:28;;;;;;;3.57;1.23;;;;;;;;;;10406440;28;20194;-70
2021/07/01 07:42:33;;;;;;;1.00;0.73;;;;;;;;;;10401119;28;20228;-71
2021/07/01 07:47:36;;;;;;;2.87;1.57;;;;;;;;;;10396499;28;20602;-72
2021/07/01 07:52:42;;;;;;;2.77;1.30;;;;;;;;;;10383043;28;20229;-70
2021/07/01 07:57:49;;;;;;;3.37;1.43;;;;;;;;;;10401798;28;20252;-70
2021/07/01 08:02:53;;;;;;;1.97;1.07;;;;;;;;;;10398120;28;20236;-70
2021/07/01 08:07:56;;;;;;;1.63;1.23;;;;;;;;;;10392000;28;20211;-70
2021/07/01 08:13:03;;;;;;;2.13;1.23;;;;;;;;;;10402350;28;20221;-70
2021/07/01 08:18:06;;;;;;;2.77;1.20;;;;;;;;;;10389543;28;20262;-70
2021/07/01 08:23:09;;;;;;;1.60;0.90;;;;;;;;;;10400035;28;20234;-70
2021/07/01 08:28:14;;;;;;;2.90;1.30;;;;;;;;;;10389562;28;20209;-71
2021/07/01 08:33:18;;;;;;;2.60;1.10;;;;;;;;;;10402514;28;20764;-70
2021/07/01 08:38:21;;;;;;;1.17;0.70;;;;;;;;;;10377086;28;20252;-71
2021/07/01 08:43:25;;;;;;;2.63;1.37;;;;;;;;;;10410995;28;20326;-71
2021/07/01 08:48:36;;;;;;;3.77;1.40;;;;;;;;;;10409220;28;20582;-71
2021/07/01 08:53:49;;;;;;;3.07;1.50;;;;;;;;;;10401548;28;20289;-71
2021/07/01 08:58:55;;;;;;;1.77;1.20;;;;;;;;;;10406002;28;20258;-71
2021/07/01 09:03:58;;;;;;;3.63;1.50;;;;;;;;;;10401799;28;20225;-71
2021/07/01 09:09:01;;;;;;;4.50;1.73;;;;;;;;;;10403222;28;20757;-71
2021/07/01 09:14:06;;;;;;;2.80;1.63;;;;;;;;;;10387549;28;20294;-71
2021/07/01 09:19:09;;;;;;;4.30;1.80;;;;;;;;;;10423672;28;20732;-74
2021/07/01 09:24:13;;;;;;;4.70;1.80;;;;;;;;;;10410575;28;20201;-71
2021/07/01 09:29:18;;;;;;;5.03;2.10;;;;;;;;;;10407196;28;20198;-72
2021/07/01 09:34:21;;;;;;;2.87;1.60;;;;;;;;;;10410217;28;20232;-72
2021/07/01 09:39:25;;;;;;;4.37;2.07;;;;;;;;;;10403332;28;20221;-72
2021/07/01 09:44:30;;;;;;;5.17;2.40;;;;;;;;;;10403403;28;20239;-72
2021/07/01 09:49:33;;;;;;;4.37;2.03;;;;;;;;;;10391962;28;20646;-72
2021/07/01 09:54:37;;;;;;;3.17;1.80;;;;;;;;;;10403050;28;20573;-71
2021/07/01 09:59:44;;;;;;;3.43;1.70;;;;;;;;;;10408569;28;20677;-72
2021/07/01 10:04:47;;;;;;;2.73;1.50;;;;;;;;;;10412365;28;20248;-72
2021/07/01 10:09:53;;;;;;;2.40;1.27;;;;;;;;;;10393879;28;20233;-71
2021/07/01 10:14:58;;;;;;;1.90;1.53;;;;;;;;;;10400040;28;20964;-71
2021/07/01 10:20:05;;;;;;;4.97;2.72;;;;;;;;;;10403024;28;20499;-72
2021/07/01 10:25:10;;;;;;;3.88;1.63;;;;;;;;;;10390219;28;20194;-72
2021/07/01 10:30:15;;;;;;;2.27;1.60;;;;;;;;;;10401419;28;20601;-71
2021/07/01 10:35:22;;;;;;;2.83;1.53;;;;;;;;;;10402325;28;20198;-71
2021/07/01 10:40:25;;;;;;;1.67;1.27;;;;;;;;;;10404109;28;20220;-72
2021/07/01 10:45:30;;;;;;;3.07;1.67;;;;;;;;;;10408627;28;20201;-71
2021/07/01 10:50:32;;;;;;;3.10;1.40;;;;;;;;;;10386699;28;20224;-72
2021/07/01 10:55:40;;;;;;;2.80;1.60;;;;;;;;;;10409022;28;20216;-71
2021/07/01 11:00:57;;;;;;;1.80;1.20;;;;;;;;;;10401311;28;20713;-72
2021/07/01 11:06:03;;;;;;;2.90;1.57;;;;;;;;;;10403705;28;20202;-72
2021/07/01 11:11:18;;;;;;;3.38;1.83;;;;;;;;;;10401385;28;20864;-71
2021/07/01 11:16:31;;;;;;;2.78;1.52;;;;;;;;;;10403742;28;20281;-71
2021/07/01 11:21:34;;;;;;;2.97;1.83;;;;;;;;;;10405803;28;20217;-71
2021/07/01 11:26:37;;;;;;;3.22;2.00;;;;;;;;;;10399889;28;20569;-71
2021/07/01 11:31:43;;;;;;;4.43;2.08;;;;;;;;;;10405396;28;20569;-70
2021/07/01 11:36:50;;;;;;;3.53;1.90;;;;;;;;;;10404702;28;20198;-71
2021/07/01 11:41:53;;;;;;;4.33;2.00;;;;;;;;;;10404212;28;20209;-72
2021/07/01 11:46:57;;;;;;;4.20;2.20;;;;;;;;;;10407042;28;20206;-71
2021/07/01 11:52:00;;;;;;;4.73;1.77;;;;;;;;;;10391516;28;20618;-72
2021/07/01 11:57:05;;;;;;;3.40;1.80;;;;;;;;;;10400212;28;20251;-72
2021/07/01 12:02:09;;;;;;;2.03;1.20;;;;;;;;;;10390926;28;20237;-70
2021/07/01 12:07:16;;;;;;;4.13;2.10;;;;;;;;;;10398207;28;20206;-71
2021/07/01 12:12:20;;;;;;;5.23;2.10;;;;;;;;;;10391196;28;20241;-72
2021/07/01 12:17:41;;;;;;;4.50;2.20;;;;;;;;;;10413196;28;20206;-72
2021/07/01 12:22:47;;;;;;;3.97;2.20;;;;;;;;;;10401543;28;20697;-72
2021/07/01 12:28:07;;;;;;;6.07;2.90;;;;;;;;;;10400339;28;20205;-71
2021/07/01 12:33:24;;;;;;;6.37;2.90;;;;;;;;;;10403552;28;20267;-71
2021/07/01 12:38:28;;;;;;;6.50;2.80;;;;;;;;;;10404521;28;20692;-72
2021/07/01 12:43:51;;;;;;;6.03;3.07;;;;;;;;;;10403434;28;20274;-72
2021/07/01 12:48:55;;;;;;;8.13;3.30;;;;;;;;;;10404585;28;20201;-72
2021/07/01 12:53:59;;;;;;;4.50;2.10;;;;;;;;;;10395450;28;20237;-72
2021/07/01 12:59:01;;;;;;;4.07;2.23;;;;;;;;;;10400429;28;20194;-73
2021/07/01 13:04:04;;;;;;;5.40;2.50;;;;;;;;;;10402439;28;20300;-72
2021/07/01 13:09:08;;;;;;;3.67;2.10;;;;;;;;;;10372940;28;20304;-72
2021/07/01 13:14:16;;;;;;;3.97;2.20;;;;;;;;;;10400980;28;20190;-71
2021/07/01 13:19:18;;;;;;;3.43;1.87;;;;;;;;;;10397452;28;20255;-73
2021/07/01 13:24:23;;;;;;;4.40;2.17;;;;;;;;;;10392868;28;20710;-73
2021/07/01 13:29:35;;;;;;;3.50;1.90;;;;;;;;;;10408969;28;20734;-72
2021/07/01 13:34:38;;;;;;;6.83;3.80;;;;;;;;;;10388944;28;20280;-71
2021/07/01 13:39:42;;;;;;;4.03;2.10;;;;;;;;;;10401974;28;20208;-70
2021/07/01 13:44:57;;;;;;;2.87;1.70;;;;;;;;;;10413505;28;20190;-71
2021/07/01 13:49:59;;;;;;;3.27;1.90;;;;;;;;;;10412966;28;20317;-72
2021/07/01 13:55:03;;;;;;;3.17;1.77;;;;;;;;;;10411409;28;20202;-72
2021/07/01 14:00:07;;;;;;;2.23;1.77;;;;;;;;;;10407042;28;20213;-71
2021/07/01 14:05:10;;;;;;;3.83;2.17;;;;;;;;;;10410061;28;20297;-72
2021/07/01 14:10:14;;;;;;;3.47;2.03;;;;;;;;;;10396690;28;20252;-71
2021/07/01 14:15:17;;;;;;;4.80;2.17;;;;;;;;;;10407842;28;20233;-71
2021/07/01 14:20:20;;;;;;;4.00;2.07;;;;;;;;;;10408086;28;20296;-72
2021/07/01 14:25:27;;;;;;;5.93;2.30;;;;;;;;;;10404644;28;20195;-73
2021/07/01 14:30:40;;;;;;;5.30;2.40;;;;;;;;;;10411384;28;20300;-70
2021/07/01 14:35:42;;;;;;;5.77;2.17;;;;;;;;;;10416713;28;20223;-71
2021/07/01 14:40:57;;;;;;;6.23;2.50;;;;;;;;;;10391698;28;20707;-71
2021/07/01 14:46:17;;;;;;;5.83;2.43;;;;;;;;;;10415258;28;20412;-71
2021/07/01 14:51:22;;;;;;;4.70;2.43;;;;;;;;;;10402460;28;20233;-71
2021/07/01 14:56:44;;;;;;;4.53;2.10;;;;;;;;;;10412746;28;20210;-72
2021/07/01 15:01:52;;;;;;;4.90;2.50;;;;;;;;;;10423000;28;20691;-72
2021/07/01 15:06:58;;;;;;;6.90;2.80;;;;;;;;;;10406706;28;20200;-72
2021/07/01 15:12:01;;;;;;;6.77;2.80;;;;;;;;;;10424988;28;20317;-72
2021/07/01 15:17:10;;;;;;;6.47;2.87;;;;;;;;;;10399542;28;20303;-72
2021/07/01 15:22:13;;;;;;;4.87;2.70;;;;;;;;;;10413765;28;20209;-72
2021/07/01 15:27:16;;;;;;;7.10;3.00;;;;;;;;;;10406308;28;20534;-72
2021/07/01 15:32:24;;;;;;;6.47;3.30;;;;;;;;;;10407444;28;20214;-71
2021/07/01 15:37:27;;;;;;;8.50;3.67;;;;;;;;;;10409164;28;20692;-72
2021/07/01 15:42:29;;;;;;;6.57;3.60;;;;;;;;;;10396268;28;20248;-72
2021/07/01 15:47:33;;;;;;;7.23;3.73;;;;;;;;;;10410974;28;20205;-72
2021/07/01 15:52:36;;;;;;;7.23;3.97;;;;;;;;;;10414956;28;20226;-72
2021/07/01 15:57:39;;;;;;;6.40;3.60;;;;;;;;;;10409330;28;20229;-71
2021/07/01 16:02:44;;;;;;;7.83;3.60;;;;;;;;;;10411359;28;20220;-72
2021/07/01 16:07:47;;;;;;;7.13;3.67;;;;;;;;;;10405320;28;20682;-72
2021/07/01 16:12:50;;;;;;;7.17;3.73;;;;;;;;;;10407448;28;20401;-73
2021/07/01 16:17:56;;;;;;;8.77;3.83;;;;;;;;;;10402969;28;20218;-73
2021/07/01 16:23:01;;;;;;;6.80;4.17;;;;;;;;;;10401542;28;20213;-72
2021/07/01 16:28:05;;;;;;;6.90;3.30;;;;;;;;;;10399030;28;20665;-72
2021/07/01 16:33:09;;;;;;;7.50;3.87;;;;;;;;;;10410109;28;20215;-72
2021/07/01 16:38:12;;;;;;;4.87;2.67;;;;;;;;;;10392869;28;20208;-72
2021/07/01 16:43:14;;;;;;;5.77;2.90;;;;;;;;;;10408124;28;20213;-72
2021/07/01 16:48:18;;;;;;;6.67;3.30;;;;;;;;;;10412235;28;20272;-71
2021/07/01 16:53:21;;;;;;;6.83;3.30;;;;;;;;;;10388162;28;20710;-73
2021/07/01 16:58:24;;;;;;;11.73;7.70;;;;;;;;;;10406158;28;20219;-72
2021/07/01 17:03:30;;;;;;;7.83;3.60;;;;;;;;;;10403538;28;20248;-71
2021/07/01 17:08:33;;;;;;;7.17;3.83;;;;;;;;;;10404728;28;20209;-72
2021/07/01 17:13:37;;;;;;;6.80;3.13;;;;;;;;;;10406248;28;20304;-72
2021/07/01 17:18:45;;;;;;;6.80;3.50;;;;;;;;;;10403681;28;20211;-72
2021/07/01 17:23:48;;;;;;;7.33;3.43;;;;;;;;;;10395722;28;20209;-72
2021/07/01 17:28:52;;;;;;;7.63;3.83;;;;;;;;;;10407422;28;20224;-73
2021/07/01 17:33:56;;;;;;;6.97;3.33;;;;;;;;;;10406895;28;20237;-72
2021/07/01 17:38:59;;;;;;;8.10;3.47;;;;;;;;;;10411253;28;20197;-70
2021/07/01 17:44:02;;;;;;;5.93;3.27;;;;;;;;;;10407338;28;20217;-70
2021/07/01 17:49:06;;;;;;;6.63;3.47;;;;;;;;;;10414533;28;20194;-71
2021/07/01 17:54:09;;;;;;;6.07;3.10;;;;;;;;;;10405725;28;20292;-72
2021/07/01 17:59:12;;;;;;;9.03;4.97;;;;;;;;;;10399055;28;20554;-72
2021/07/01 18:04:16;;;;;;;8.37;3.40;;;;;;;;;;10415820;28;20256;-71
2021/07/01 18:09:20;;;;;;;7.93;3.53;;;;;;;;;;10404355;28;20217;-71
2021/07/01 18:14:23;;;;;;;6.63;2.83;;;;;;;;;;10405678;28;20219;-71
2021/07/01 18:19:27;;;;;;;5.57;3.10;;;;;;;;;;10404902;28;20699;-71
2021/07/01 18:24:30;;;;;;;9.73;4.53;;;;;;;;;;10402042;28;20281;-71
2021/07/01 18:29:32;;;;;;;8.93;4.17;;;;;;;;;;10408614;28;20213;-71
2021/07/01 18:34:37;;;;;;;7.43;3.60;;;;;;;;;;10394423;28;20217;-72
2021/07/01 18:39:39;;;;;;;6.83;2.77;;;;;;;;;;10419947;28;20213;-72
2021/07/01 18:44:42;;;;;;;8.27;4.00;;;;;;;;;;10407107;28;20601;-72
2021/07/01 18:49:48;;;;;;;6.90;3.33;;;;;;;;;;10403534;28;20771;-71
2021/07/01 18:54:51;;;;;;;8.30;3.50;;;;;;;;;;10399713;28;20355;-72
2021/07/01 18:59:53;;;;;;;8.57;4.30;;;;;;;;;;10393241;28;20308;-71
2021/07/01 19:04:57;;;;;;;6.73;3.60;;;;;;;;;;10413081;28;20268;-72
2021/07/01 19:10:00;;;;;;;6.30;3.30;;;;;;;;;;10401792;28;20778;-71
2021/07/01 19:15:02;;;;;;;6.57;3.60;;;;;;;;;;10378499;28;20228;-71
2021/07/01 19:20:07;;;;;;;7.93;4.00;;;;;;;;;;10387935;28;20285;-72
2021/07/01 19:25:11;;;;;;;7.40;3.40;;;;;;;;;;10406964;28;20613;-73
2021/07/01 19:30:14;;;;;;;7.50;3.60;;;;;;;;;;10422319;28;20213;-72
2021/07/01 19:35:18;;;;;;;7.77;3.30;;;;;;;;;;10421700;28;20741;-71
2021/07/01 19:40:21;;;;;;;7.33;3.60;;;;;;;;;;10415441;28;20662;-71
2021/07/01 19:45:24;;;;;;;6.93;3.77;;;;;;;;;;10416800;28;20193;-71
2021/07/01 19:50:29;;;;;;;7.17;3.57;;;;;;;;;;10410020;28;20300;-72
2021/07/01 19:55:32;;;;;;;6.97;3.63;;;;;;;;;;10409203;28;20220;-71
2021/07/01 20:00:35;;;;;;;10.17;5.37;;;;;;;;;;10409706;28;20336;-72
2021/07/01 20:05:38;;;;;;;7.63;3.63;;;;;;;;;;10399638;28;20230;-71
2021/07/01 20:10:41;;;;;;;8.57;4.70;;;;;;;;;;10407933;28;20222;-71
2021/07/01 20:15:44;;;;;;;8.23;4.40;;;;;;;;;;10418307;28;20246;-71
2021/07/01 20:20:48;;;;;;;10.07;4.80;;;;;;;;;;10420695;28;20600;-70
2021/07/01 20:25:51;;;;;;;8.63;3.60;;;;;;;;;;10404405;28;20224;-71
2021/07/01 20:30:54;;;;;;;8.77;4.60;;;;;;;;;;10423685;28;20243;-72
2021/07/01 20:35:58;;;;;;;7.90;4.70;;;;;;;;;;10419245;28;20209;-71
2021/07/01 20:41:00;;;;;;;8.37;3.80;;;;;;;;;;10411102;28;20205;-70
2021/07/01 20:46:03;;;;;;;8.20;4.17;;;;;;;;;;10414827;28;20654;-71
2021/07/01 20:51:07;;;;;;;7.77;4.07;;;;;;;;;;10424951;28;20292;-72
2021/07/01 20:56:10;;;;;;;6.87;3.53;;;;;;;;;;10421051;28;20197;-71
2021/07/01 21:01:12;;;;;;;8.87;4.43;;;;;;;;;;10418738;28;20224;-71
2021/07/01 21:06:21;;;;;;;9.73;3.83;;;;;;;;;;10414600;28;20205;-72
2021/07/01 21:11:24;;;;;;;7.13;3.80;;;;;;;;;;10406988;28;20271;-71
2021/07/01 21:16:27;;;;;;;7.23;3.47;;;;;;;;;;10416976;28;20288;-70
2021/07/01 21:21:31;;;;;;;6.20;3.23;;;;;;;;;;10402356;28;20296;-72
2021/07/01 21:26:34;;;;;;;8.10;4.17;;;;;;;;;;10407867;28;20193;-71
2021/07/01 21:31:37;;;;;;;7.97;3.50;;;;;;;;;;10403915;28;20283;-72
2021/07/01 21:36:41;;;;;;;7.83;3.73;;;;;;;;;;10403338;28;20235;-71
2021/07/01 21:41:47;;;;;;;9.40;3.90;;;;;;;;;;10399985;28;20205;-71
2021/07/01 21:46:51;;;;;;;7.17;3.60;;;;;;;;;;10404522;28;20194;-72
2021/07/01 21:51:55;;;;;;;7.07;3.57;;;;;;;;;;10403942;28;20216;-71
2021/07/01 21:56:59;;;;;;;7.33;3.63;;;;;;;;;;10405131;28;20215;-73
2021/07/01 22:02:02;;;;;;;9.17;4.63;;;;;;;;;;10408425;28;20214;-71
2021/07/01 22:07:06;;;;;;;6.93;3.73;;;;;;;;;;10402186;28;20342;-72
2021/07/01 22:12:10;;;;;;;8.20;4.10;;;;;;;;;;10386638;28;20301;-71
2021/07/01 22:17:13;;;;;;;8.00;3.60;;;;;;;;;;10401590;28;20622;-71
2021/07/01 22:22:17;;;;;;;6.97;3.27;;;;;;;;;;10407026;28;20213;-71
2021/07/01 22:27:21;;;;;;;8.10;4.10;;;;;;;;;;10406135;28;20574;-71
2021/07/01 22:32:23;;;;;;;7.80;4.00;;;;;;;;;;10404894;28;20276;-72
2021/07/01 22:37:28;;;;;;;9.23;4.77;;;;;;;;;;10406462;28;20201;-69
2021/07/01 22:42:30;;;;;;;9.93;4.30;;;;;;;;;;10388694;28;20292;-71
2021/07/01 22:47:38;;;;;;;8.60;4.57;;;;;;;;;;10406430;28;20253;-72
2021/07/01 22:53:02;;;;;;;8.90;4.27;;;;;;;;;;10414524;28;20258;-71
2021/07/01 22:58:05;;;;;;;8.20;4.13;;;;;;;;;;10412331;28;20697;-71
2021/07/01 23:03:08;;;;;;;8.47;4.30;;;;;;;;;;10410214;28;20630;-71
2021/07/01 23:08:11;;;;;;;10.80;4.57;;;;;;;;;;10410540;28;20217;-71
2021/07/01 23:13:14;;;;;;;8.90;4.60;;;;;;;;;;10420240;28;20313;-71
2021/07/01 23:18:17;;;;;;;9.67;4.70;;;;;;;;;;10410283;28;20216;-71
2021/07/01 23:23:21;;;;;;;8.30;4.50;;;;;;;;;;10430421;28;20681;-70
2021/07/01 23:28:23;;;;;;;9.40;4.57;;;;;;;;;;10414718;28;20204;-72
2021/07/01 23:33:26;;;;;;;9.33;4.40;;;;;;;;;;10413711;28;20308;-70
2021/07/01 23:38:29;;;;;;;9.70;4.50;;;;;;;;;;10410369;28;20312;-72
2021/07/01 23:43:32;;;;;;;9.27;4.57;;;;;;;;;;10417153;28;20288;-72
2021/07/01 23:48:35;;;;;;;8.67;4.97;;;;;;;;;;10415489;28;20652;-72
2021/07/01 23:53:39;;;;;;;8.63;4.80;;;;;;;;;;10420267;28;20732;-73
2021/07/01 23:58:42;;;;;;;10.80;5.73;;;;;;;;;;10410491;28;20600;-70
